sensor_id;sensor_type;location;lat;lon;timestamp;pressure;altitude;pressure_sealevel;temperature
13497;BMP180;6820;49.374;8.452;2023-07-31T00:01:24;100463.13;;;27.06
13497;BMP180;6820;49.374;8.452;2023-07-31T00:05:26;100461.38;;;27.06
13497;BMP180;6820;49.374;8.452;2023-07-31T00:09:28;100450.09;;;27.04
13497;BMP180;6820;49.374;8.452;2023-07-31T00:13:29;100456.16;;;27.05
13497;BMP180;6820;49.374;8.452;2023-07-31T00:17:31;100456.19;;;27.03
13497;BMP180;6820;49.374;8.452;2023-07-31T00:21:32;100446.66;;;27.01
13497;BMP180;6820;49.374;8.452;2023-07-31T00:25:34;100451.00;;;26.99
13497;BMP180;6820;49.374;8.452;2023-07-31T00:29:36;100455.34;;;26.98
13497;BMP180;6820;49.374;8.452;2023-07-31T00:33:38;100450.16;;;26.95
13497;BMP180;6820;49.374;8.452;2023-07-31T00:37:40;100444.06;;;26.92
13497;BMP180;6820;49.374;8.452;2023-07-31T00:41:41;100439.78;;;26.85
13497;BMP180;6820;49.374;8.452;2023-07-31T00:45:43;100435.47;;;26.77
13497;BMP180;6820;49.374;8.452;2023-07-31T00:49:45;100444.13;;;26.68
13497;BMP180;6820;49.374;8.452;2023-07-31T00:53:47;100436.34;;;26.57
13497;BMP180;6820;49.374;8.452;2023-07-31T00:57:49;100425.97;;;26.45
13497;BMP180;6820;49.374;8.452;2023-07-31T01:01:52;100437.25;;;26.38
13497;BMP180;6820;49.374;8.452;2023-07-31T01:10:16;100424.28;;;26.33
13497;BMP180;6820;49.374;8.452;2023-07-31T01:14:20;100427.72;;;26.35
13497;BMP180;6820;49.374;8.452;2023-07-31T01:18:22;100422.50;;;26.38
13497;BMP180;6820;49.374;8.452;2023-07-31T01:27:07;100417.34;;;26.37
13497;BMP180;6820;49.374;8.452;2023-07-31T01:31:14;100416.47;;;26.36
13497;BMP180;6820;49.374;8.452;2023-07-31T01:35:16;100409.53;;;26.37
13497;BMP180;6820;49.374;8.452;2023-07-31T01:39:20;100402.59;;;26.36
13497;BMP180;6820;49.374;8.452;2023-07-31T01:43:22;100394.81;;;26.34
13497;BMP180;6820;49.374;8.452;2023-07-31T01:47:24;100406.06;;;26.29
13497;BMP180;6820;49.374;8.452;2023-07-31T01:51:26;100406.09;;;26.23
13497;BMP180;6820;49.374;8.452;2023-07-31T01:55:27;100406.06;;;26.25
13497;BMP180;6820;49.374;8.452;2023-07-31T01:59:29;100401.75;;;26.25
13497;BMP180;6820;49.374;8.452;2023-07-31T02:03:31;100406.09;;;26.23
13497;BMP180;6820;49.374;8.452;2023-07-31T02:07:33;100393.97;;;26.21
13497;BMP180;6820;49.374;8.452;2023-07-31T02:11:34;100391.38;;;26.21
13497;BMP180;6820;49.374;8.452;2023-07-31T02:15:36;100383.56;;;26.19
13497;BMP180;6820;49.374;8.452;2023-07-31T02:19:38;100387.91;;;26.13
13497;BMP180;6820;49.374;8.452;2023-07-31T02:23:39;100373.19;;;26.04
13497;BMP180;6820;49.374;8.452;2023-07-31T02:27:41;100371.44;;;26.02
13497;BMP180;6820;49.374;8.452;2023-07-31T02:31:43;100368.84;;;25.99
13497;BMP180;6820;49.374;8.452;2023-07-31T02:35:44;100369.72;;;25.97
13497;BMP180;6820;49.374;8.452;2023-07-31T02:39:46;100372.28;;;25.98
13497;BMP180;6820;49.374;8.452;2023-07-31T02:43:48;100370.56;;;26.00
13497;BMP180;6820;49.374;8.452;2023-07-31T02:47:50;100374.88;;;26.01
13497;BMP180;6820;49.374;8.452;2023-07-31T02:51:52;100375.75;;;25.99
13497;BMP180;6820;49.374;8.452;2023-07-31T02:55:53;100372.31;;;25.97
13497;BMP180;6820;49.374;8.452;2023-07-31T02:59:55;100371.44;;;25.95
13497;BMP180;6820;49.374;8.452;2023-07-31T03:03:57;100371.44;;;25.95
13497;BMP180;6820;49.374;8.452;2023-07-31T03:07:59;100366.25;;;25.90
13497;BMP180;6820;49.374;8.452;2023-07-31T03:12:01;100361.03;;;25.83
13497;BMP180;6820;49.374;8.452;2023-07-31T03:16:03;100361.94;;;25.73
13497;BMP180;6820;49.374;8.452;2023-07-31T03:20:05;100364.53;;;25.67
13497;BMP180;6820;49.374;8.452;2023-07-31T03:24:06;100368.84;;;25.65
13497;BMP180;6820;49.374;8.452;2023-07-31T03:28:08;100371.44;;;25.65
13497;BMP180;6820;49.374;8.452;2023-07-31T03:32:10;100374.03;;;25.67
13497;BMP180;6820;49.374;8.452;2023-07-31T03:36:12;100370.59;;;25.65
13497;BMP180;6820;49.374;8.452;2023-07-31T03:40:13;100353.28;;;25.65
13497;BMP180;6820;49.374;8.452;2023-07-31T03:44:17;100359.31;;;25.66
13497;BMP180;6820;49.374;8.452;2023-07-31T03:48:18;100363.63;;;25.67
13497;BMP180;6820;49.374;8.452;2023-07-31T03:52:20;100361.06;;;25.65
13497;BMP180;6820;49.374;8.452;2023-07-31T03:56:22;100351.56;;;25.67
13497;BMP180;6820;49.374;8.452;2023-07-31T04:00:26;100355.88;;;25.68
13497;BMP180;6820;49.374;8.452;2023-07-31T04:04:28;100365.38;;;25.68
13497;BMP180;6820;49.374;8.452;2023-07-31T04:08:30;100357.59;;;25.69
13497;BMP180;6820;49.374;8.452;2023-07-31T04:12:31;100358.47;;;25.72
13497;BMP180;6820;49.374;8.452;2023-07-31T04:16:33;100355.88;;;25.70
13497;BMP180;6820;49.374;8.452;2023-07-31T04:20:34;100363.66;;;25.72
13497;BMP180;6820;49.374;8.452;2023-07-31T04:24:36;100359.34;;;25.70
13497;BMP180;6820;49.374;8.452;2023-07-31T04:28:38;100358.44;;;25.74
13497;BMP180;6820;49.374;8.452;2023-07-31T04:32:39;100360.19;;;25.73
13497;BMP180;6820;49.374;8.452;2023-07-31T04:36:41;100355.84;;;25.74
13497;BMP180;6820;49.374;8.452;2023-07-31T04:40:43;100359.31;;;25.74
13497;BMP180;6820;49.374;8.452;2023-07-31T04:44:44;100348.09;;;25.78
13497;BMP180;6820;49.374;8.452;2023-07-31T04:48:46;100343.75;;;25.80
13497;BMP180;6820;49.374;8.452;2023-07-31T04:52:48;100350.66;;;25.90
13497;BMP180;6820;49.374;8.452;2023-07-31T04:56:49;100346.34;;;25.97
13497;BMP180;6820;49.374;8.452;2023-07-31T05:00:51;100353.25;;;26.02
13497;BMP180;6820;49.374;8.452;2023-07-31T05:04:52;100348.06;;;26.08
13497;BMP180;6820;49.374;8.452;2023-07-31T05:08:54;100337.69;;;26.14
13497;BMP180;6820;49.374;8.452;2023-07-31T05:12:56;100340.25;;;26.23
13497;BMP180;6820;49.374;8.452;2023-07-31T05:16:58;100333.31;;;26.22
13497;BMP180;6820;49.374;8.452;2023-07-31T05:20:59;100335.06;;;26.20
13497;BMP180;6820;49.374;8.452;2023-07-31T05:25:01;100348.03;;;26.23
13497;BMP180;6820;49.374;8.452;2023-07-31T05:29:03;100340.25;;;26.32
13497;BMP180;6820;49.374;8.452;2023-07-31T05:37:06;100354.00;;;26.57
13497;BMP180;6820;49.374;8.452;2023-07-31T05:41:08;100345.31;;;26.70
13497;BMP180;6820;49.374;8.452;2023-07-31T05:45:10;100349.59;;;26.86
13497;BMP180;6820;49.374;8.452;2023-07-31T05:49:11;100331.34;;;26.94
13497;BMP180;6820;49.374;8.452;2023-07-31T05:53:13;100332.16;;;27.02
13497;BMP180;6820;49.374;8.452;2023-07-31T05:57:14;100326.06;;;27.09
13497;BMP180;6820;49.374;8.452;2023-07-31T06:01:16;100332.06;;;27.20
13497;BMP180;6820;49.374;8.452;2023-07-31T06:05:18;100335.50;;;27.25
13497;BMP180;6820;49.374;8.452;2023-07-31T06:09:20;100330.28;;;27.28
13497;BMP180;6820;49.374;8.452;2023-07-31T06:13:22;100321.56;;;27.33
13497;BMP180;6820;49.374;8.452;2023-07-31T06:17:24;100312.91;;;27.36
13497;BMP180;6820;49.374;8.452;2023-07-31T06:21:25;100316.38;;;27.38
13497;BMP180;6820;49.374;8.452;2023-07-31T06:25:27;100323.25;;;27.45
13497;BMP180;6820;49.374;8.452;2023-07-31T06:29:29;100314.56;;;27.44
13497;BMP180;6820;49.374;8.452;2023-07-31T06:33:31;100322.38;;;27.47
13497;BMP180;6820;49.374;8.452;2023-07-31T06:37:33;100306.72;;;27.52
13497;BMP180;6820;49.374;8.452;2023-07-31T06:41:38;100310.94;;;27.61
13497;BMP180;6820;49.374;8.452;2023-07-31T06:45:44;100302.19;;;27.71
13497;BMP180;6820;49.374;8.452;2023-07-31T06:49:47;100305.69;;;27.70
13497;BMP180;6820;49.374;8.452;2023-07-31T06:53:48;100303.13;;;27.66
13497;BMP180;6820;49.374;8.452;2023-07-31T06:57:53;100320.50;;;27.62
13497;BMP180;6820;49.374;8.452;2023-07-31T07:01:54;100310.94;;;27.66
13497;BMP180;6820;49.374;8.452;2023-07-31T07:05:56;100310.84;;;27.75
13497;BMP180;6820;49.374;8.452;2023-07-31T07:09:58;100304.88;;;27.67
13497;BMP180;6820;49.374;8.452;2023-07-31T07:14:01;100304.16;;;27.49
13497;BMP180;6820;49.374;8.452;2023-07-31T07:18:02;100317.22;;;27.37
13497;BMP180;6820;49.374;8.452;2023-07-31T07:22:05;100309.47;;;27.28
13497;BMP180;6820;49.374;8.452;2023-07-31T07:26:07;100314.66;;;27.31
13497;BMP180;6820;49.374;8.452;2023-07-31T07:30:09;100311.03;;;27.54
13497;BMP180;6820;49.374;8.452;2023-07-31T07:34:11;100308.06;;;27.95
13497;BMP180;6820;49.374;8.452;2023-07-31T07:38:14;100294.53;;;28.43
13497;BMP180;6820;49.374;8.452;2023-07-31T07:42:16;100295.75;;;28.83
13497;BMP180;6820;49.374;8.452;2023-07-31T07:46:18;100294.66;;;29.01
13497;BMP180;6820;49.374;8.452;2023-07-31T07:50:20;100289.13;;;29.21
13497;BMP180;6820;49.374;8.452;2023-07-31T07:54:21;100295.09;;;29.32
13497;BMP180;6820;49.374;8.452;2023-07-31T07:58:23;100302.88;;;29.34
13497;BMP180;6820;49.374;8.452;2023-07-31T08:02:25;100293.19;;;29.40
13497;BMP180;6820;49.374;8.452;2023-07-31T08:06:26;100275.59;;;29.52
13497;BMP180;6820;49.374;8.452;2023-07-31T08:10:28;100276.19;;;29.69
13497;BMP180;6820;49.374;8.452;2023-07-31T08:14:30;100283.91;;;29.78
13497;BMP180;6820;49.374;8.452;2023-07-31T08:18:34;100269.69;;;29.92
13497;BMP180;6820;49.374;8.452;2023-07-31T08:22:35;100273.00;;;30.02
13497;BMP180;6820;49.374;8.452;2023-07-31T08:26:37;100271.31;;;29.99
13497;BMP180;6820;49.374;8.452;2023-07-31T08:30:39;100267.00;;;29.95
13497;BMP180;6820;49.374;8.452;2023-07-31T08:34:41;100256.72;;;29.86
13497;BMP180;6820;49.374;8.452;2023-07-31T08:38:45;100253.28;;;29.84
13497;BMP180;6820;49.374;8.452;2023-07-31T08:42:48;100242.88;;;29.83
13497;BMP180;6820;49.374;8.452;2023-07-31T08:46:50;100230.59;;;29.86
13497;BMP180;6820;49.374;8.452;2023-07-31T08:50:52;100234.53;;;30.06
13497;BMP180;6820;49.374;8.452;2023-07-31T08:54:54;100229.31;;;30.06
13497;BMP180;6820;49.374;8.452;2023-07-31T08:58:57;100221.59;;;30.02
13497;BMP180;6820;49.374;8.452;2023-07-31T09:03:02;100233.94;;;29.94
13497;BMP180;6820;49.374;8.452;2023-07-31T09:07:05;100211.00;;;30.06
13497;BMP180;6820;49.374;8.452;2023-07-31T09:11:07;100228.44;;;30.06
13497;BMP180;6820;49.374;8.452;2023-07-31T09:15:09;100204.97;;;30.04
13497;BMP180;6820;49.374;8.452;2023-07-31T09:19:37;100212.91;;;29.99
13497;BMP180;6820;49.374;8.452;2023-07-31T09:23:47;100207.09;;;29.86
13497;BMP180;6820;49.374;8.452;2023-07-31T09:27:57;100187.16;;;29.81
13497;BMP180;6820;49.374;8.452;2023-07-31T09:31:59;100191.59;;;29.77
13497;BMP180;6820;49.374;8.452;2023-07-31T09:36:04;100195.97;;;29.75
13497;BMP180;6820;49.374;8.452;2023-07-31T09:40:06;100201.06;;;29.81
13497;BMP180;6820;49.374;8.452;2023-07-31T09:44:08;100198.06;;;30.02
13497;BMP180;6820;49.374;8.452;2023-07-31T09:48:17;100176.88;;;30.14
13497;BMP180;6820;49.374;8.452;2023-07-31T09:52:19;100172.47;;;30.58
13497;BMP180;6820;49.374;8.452;2023-07-31T09:56:21;100167.63;;;31.13
13497;BMP180;6820;49.374;8.452;2023-07-31T10:00:24;100164.50;;;31.67
13497;BMP180;6820;49.374;8.452;2023-07-31T10:04:29;100162.19;;;31.88
13497;BMP180;6820;49.374;8.452;2023-07-31T10:08:34;100151.91;;;31.81
13497;BMP180;6820;49.374;8.452;2023-07-31T10:12:37;100153.19;;;31.65
13497;BMP180;6820;49.374;8.452;2023-07-31T10:16:39;100151.00;;;31.82
13497;BMP180;6820;49.374;8.452;2023-07-31T10:20:43;100133.06;;;32.27
13497;BMP180;6820;49.374;8.452;2023-07-31T10:24:46;100141.53;;;32.36
13497;BMP180;6820;49.374;8.452;2023-07-31T10:28:48;100129.72;;;32.51
13497;BMP180;6820;49.374;8.452;2023-07-31T10:32:51;100126.47;;;32.43
13497;BMP180;6820;49.374;8.452;2023-07-31T10:37:19;100130.66;;;32.48
13497;BMP180;6820;49.374;8.452;2023-07-31T10:41:29;100112.97;;;32.82
13497;BMP180;6820;49.374;8.452;2023-07-31T10:45:36;100110.44;;;33.04
13497;BMP180;6820;49.374;8.452;2023-07-31T10:49:38;100115.94;;;32.97
13497;BMP180;6820;49.374;8.452;2023-07-31T10:53:40;100130.13;;;32.91
13497;BMP180;6820;49.374;8.452;2023-07-31T10:57:45;100124.38;;;32.53
13497;BMP180;6820;49.374;8.452;2023-07-31T11:01:53;100122.88;;;32.17
13497;BMP180;6820;49.374;8.452;2023-07-31T11:09:59;100103.75;;;32.13
13497;BMP180;6820;49.374;8.452;2023-07-31T11:14:01;100099.50;;;32.38
13497;BMP180;6820;49.374;8.452;2023-07-31T11:18:04;100089.75;;;32.41
13497;BMP180;6820;49.374;8.452;2023-07-31T11:22:07;100086.34;;;32.39
13497;BMP180;6820;49.374;8.452;2023-07-31T11:26:08;100098.63;;;32.39
13497;BMP180;6820;49.374;8.452;2023-07-31T11:30:11;100086.19;;;32.44
13497;BMP180;6820;49.374;8.452;2023-07-31T11:34:12;100096.44;;;32.51
13497;BMP180;6820;49.374;8.452;2023-07-31T11:42:25;100085.38;;;32.69
13497;BMP180;6820;49.374;8.452;2023-07-31T11:46:30;100084.13;;;32.80
13497;BMP180;6820;49.374;8.452;2023-07-31T11:50:33;100074.47;;;32.82
13497;BMP180;6820;49.374;8.452;2023-07-31T11:54:36;100066.63;;;32.81
13497;BMP180;6820;49.374;8.452;2023-07-31T11:58:39;100063.47;;;32.70
13497;BMP180;6820;49.374;8.452;2023-07-31T12:02:42;100058.09;;;32.73
13497;BMP180;6820;49.374;8.452;2023-07-31T12:06:44;100066.50;;;32.58
13497;BMP180;6820;49.374;8.452;2023-07-31T12:10:46;100058.88;;;32.49
13497;BMP180;6820;49.374;8.452;2023-07-31T12:14:49;100054.47;;;32.51
13497;BMP180;6820;49.374;8.452;2023-07-31T12:18:52;100042.06;;;32.56
13497;BMP180;6820;49.374;8.452;2023-07-31T12:22:56;100044.22;;;32.69
13497;BMP180;6820;49.374;8.452;2023-07-31T12:26:58;100037.44;;;32.89
13497;BMP180;6820;49.374;8.452;2023-07-31T12:31:00;100028.28;;;33.01
13497;BMP180;6820;49.374;8.452;2023-07-31T12:35:06;100020.94;;;33.10
13497;BMP180;6820;49.374;8.452;2023-07-31T12:39:08;100035.63;;;33.15
13497;BMP180;6820;49.374;8.452;2023-07-31T12:43:09;100025.88;;;32.95
13497;BMP180;6820;49.374;8.452;2023-07-31T12:47:11;100034.06;;;32.59
13497;BMP180;6820;49.374;8.452;2023-07-31T12:51:12;100015.88;;;32.27
13497;BMP180;6820;49.374;8.452;2023-07-31T12:55:14;100008.09;;;32.26
13497;BMP180;6820;49.374;8.452;2023-07-31T12:59:16;100003.75;;;32.51
13497;BMP180;6820;49.374;8.452;2023-07-31T13:03:17;99991.09;;;32.88
13497;BMP180;6820;49.374;8.452;2023-07-31T13:07:19;99984.81;;;33.16
13497;BMP180;6820;49.374;8.452;2023-07-31T13:11:21;99996.69;;;33.02
13497;BMP180;6820;49.374;8.452;2023-07-31T13:15:23;99985.31;;;32.79
13497;BMP180;6820;49.374;8.452;2023-07-31T13:19:25;99979.16;;;32.79
13497;BMP180;6820;49.374;8.452;2023-07-31T13:23:27;99987.88;;;32.55
13497;BMP180;6820;49.374;8.452;2023-07-31T13:27:28;99995.31;;;32.41
13497;BMP180;6820;49.374;8.452;2023-07-31T13:31:30;99990.78;;;32.19
13497;BMP180;6820;49.374;8.452;2023-07-31T13:35:32;99985.41;;;31.96
13497;BMP180;6820;49.374;8.452;2023-07-31T13:39:33;99971.97;;;32.07
13497;BMP180;6820;49.374;8.452;2023-07-31T13:43:35;99968.75;;;32.26
13497;BMP180;6820;49.374;8.452;2023-07-31T13:47:37;99980.44;;;32.42
13497;BMP180;6820;49.374;8.452;2023-07-31T13:51:39;99978.22;;;32.30
13497;BMP180;6820;49.374;8.452;2023-07-31T13:55:41;99966.97;;;31.99
13497;BMP180;6820;49.374;8.452;2023-07-31T13:59:46;99975.66;;;31.71
13497;BMP180;6820;49.374;8.452;2023-07-31T14:03:48;99973.00;;;31.44
13497;BMP180;6820;49.374;8.452;2023-07-31T14:07:50;99977.06;;;31.26
13497;BMP180;6820;49.374;8.452;2023-07-31T14:11:51;99968.72;;;31.10
13497;BMP180;6820;49.374;8.452;2023-07-31T14:15:53;99978.81;;;30.94
13497;BMP180;6820;49.374;8.452;2023-07-31T14:19:54;99979.47;;;30.68
13497;BMP180;6820;49.374;8.452;2023-07-31T14:23:56;99975.34;;;30.59
13497;BMP180;6820;49.374;8.452;2023-07-31T14:27:58;99962.00;;;30.69
13497;BMP180;6820;49.374;8.452;2023-07-31T14:32:00;99942.63;;;30.76
13497;BMP180;6820;49.374;8.452;2023-07-31T14:36:02;99948.91;;;30.69
13497;BMP180;6820;49.374;8.452;2023-07-31T14:40:10;99935.59;;;30.79
13497;BMP180;6820;49.374;8.452;2023-07-31T14:44:12;99923.38;;;31.10
13497;BMP180;6820;49.374;8.452;2023-07-31T14:48:14;99920.69;;;31.43
13497;BMP180;6820;49.374;8.452;2023-07-31T14:52:15;99914.00;;;31.89
13497;BMP180;6820;49.374;8.452;2023-07-31T14:56:17;99902.56;;;32.17
13497;BMP180;6820;49.374;8.452;2023-07-31T15:00:19;99894.75;;;32.41
13497;BMP180;6820;49.374;8.452;2023-07-31T15:04:21;99874.53;;;32.44
13497;BMP180;6820;49.374;8.452;2023-07-31T15:08:23;99877.66;;;32.55
13497;BMP180;6820;49.374;8.452;2023-07-31T15:12:25;99867.69;;;32.64
13497;BMP180;6820;49.374;8.452;2023-07-31T15:16:28;99880.56;;;32.70
13497;BMP180;6820;49.374;8.452;2023-07-31T15:20:31;99884.72;;;32.53
13497;BMP180;6820;49.374;8.452;2023-07-31T15:24:34;99886.59;;;32.50
13497;BMP180;6820;49.374;8.452;2023-07-31T15:28:35;99893.38;;;32.31
13497;BMP180;6820;49.374;8.452;2023-07-31T15:32:39;99907.38;;;32.30
13497;BMP180;6820;49.374;8.452;2023-07-31T15:36:41;99899.41;;;32.07
13497;BMP180;6820;49.374;8.452;2023-07-31T15:40:43;99890.97;;;31.98
13497;BMP180;6820;49.374;8.452;2023-07-31T15:44:44;99881.31;;;31.98
13497;BMP180;6820;49.374;8.452;2023-07-31T15:48:46;99880.28;;;31.78
13497;BMP180;6820;49.374;8.452;2023-07-31T15:52:48;99874.69;;;31.61
13497;BMP180;6820;49.374;8.452;2023-07-31T15:56:49;99867.88;;;31.56
13497;BMP180;6820;49.374;8.452;2023-07-31T16:00:51;99870.66;;;31.50
13497;BMP180;6820;49.374;8.452;2023-07-31T16:04:53;99870.84;;;31.44
13497;BMP180;6820;49.374;8.452;2023-07-31T16:08:54;99869.34;;;31.37
13497;BMP180;6820;49.374;8.452;2023-07-31T16:12:57;99871.97;;;31.36
13497;BMP180;6820;49.374;8.452;2023-07-31T16:16:59;99865.56;;;31.16
13497;BMP180;6820;49.374;8.452;2023-07-31T16:21:00;99870.03;;;31.14
13497;BMP180;6820;49.374;8.452;2023-07-31T16:25:03;99859.84;;;31.03
13497;BMP180;6820;49.374;8.452;2023-07-31T16:29:04;99841.00;;;30.93
13497;BMP180;6820;49.374;8.452;2023-07-31T16:33:06;99850.53;;;30.95
13497;BMP180;6820;49.374;8.452;2023-07-31T16:37:09;99830.84;;;30.82
13497;BMP180;6820;49.374;8.452;2023-07-31T16:41:10;99831.03;;;30.75
13497;BMP180;6820;49.374;8.452;2023-07-31T16:45:12;99834.75;;;30.66
13497;BMP180;6820;49.374;8.452;2023-07-31T16:52:17;99834.28;;;30.51
13497;BMP180;6820;49.374;8.452;2023-07-31T16:56:18;99836.47;;;30.36
13497;BMP180;6820;49.374;8.452;2023-07-31T17:00:20;99831.66;;;30.21
13497;BMP180;6820;49.374;8.452;2023-07-31T17:04:21;99831.78;;;30.15
13497;BMP180;6820;49.374;8.452;2023-07-31T17:08:24;99822.38;;;30.08
13497;BMP180;6820;49.374;8.452;2023-07-31T17:12:25;99824.31;;;30.01
13497;BMP180;6820;49.374;8.452;2023-07-31T17:16:27;99829.06;;;29.85
13497;BMP180;6820;49.374;8.452;2023-07-31T17:20:30;99829.66;;;29.62
13497;BMP180;6820;49.374;8.452;2023-07-31T17:24:33;99842.28;;;29.43
13497;BMP180;6820;49.374;8.452;2023-07-31T17:28:35;99835.44;;;29.38
13497;BMP180;6820;49.374;8.452;2023-07-31T17:32:37;99839.13;;;29.30
13497;BMP180;6820;49.374;8.452;2023-07-31T17:36:38;99843.44;;;29.29
13497;BMP180;6820;49.374;8.452;2023-07-31T17:40:40;99846.19;;;29.23
13497;BMP180;6820;49.374;8.452;2023-07-31T17:44:42;99843.75;;;29.16
13497;BMP180;6820;49.374;8.452;2023-07-31T17:48:44;99841.34;;;29.07
13497;BMP180;6820;49.374;8.452;2023-07-31T17:52:45;99837.09;;;29.02
13497;BMP180;6820;49.374;8.452;2023-07-31T17:56:47;99833.72;;;28.97
13497;BMP180;6820;49.374;8.452;2023-07-31T18:00:51;99834.69;;;28.91
13497;BMP180;6820;49.374;8.452;2023-07-31T18:04:52;99818.34;;;28.85
13497;BMP180;6820;49.374;8.452;2023-07-31T18:08:54;99826.28;;;28.79
13497;BMP180;6820;49.374;8.452;2023-07-31T18:12:56;99810.22;;;28.56
13497;BMP180;6820;49.374;8.452;2023-07-31T18:16:57;99809.31;;;28.59
13497;BMP180;6820;49.374;8.452;2023-07-31T18:20:59;99804.09;;;28.59
13497;BMP180;6820;49.374;8.452;2023-07-31T18:25:01;99808.41;;;28.60
13497;BMP180;6820;49.374;8.452;2023-07-31T18:29:03;99802.41;;;28.56
13497;BMP180;6820;49.374;8.452;2023-07-31T18:33:04;99793.84;;;28.50
13497;BMP180;6820;49.374;8.452;2023-07-31T18:37:06;99785.28;;;28.42
13497;BMP180;6820;49.374;8.452;2023-07-31T18:41:08;99805.38;;;28.36
13497;BMP180;6820;49.374;8.452;2023-07-31T18:45:10;99815.97;;;28.28
13497;BMP180;6820;49.374;8.452;2023-07-31T18:49:11;99784.00;;;28.20
13497;BMP180;6820;49.374;8.452;2023-07-31T18:53:13;99775.25;;;28.21
13497;BMP180;6820;49.374;8.452;2023-07-31T18:57:15;99779.59;;;28.22
13497;BMP180;6820;49.374;8.452;2023-07-31T19:01:16;99782.19;;;28.22
13497;BMP180;6820;49.374;8.452;2023-07-31T19:05:18;99781.34;;;28.22
13497;BMP180;6820;49.374;8.452;2023-07-31T19:09:30;99784.00;;;28.20
13497;BMP180;6820;49.374;8.452;2023-07-31T19:13:33;99776.25;;;28.15
13497;BMP180;6820;49.374;8.452;2023-07-31T19:17:36;99790.22;;;28.12
13497;BMP180;6820;49.374;8.452;2023-07-31T19:21:39;99808.50;;;28.09
13497;BMP180;6820;49.374;8.452;2023-07-31T19:25:41;99795.59;;;28.03
13497;BMP180;6820;49.374;8.452;2023-07-31T19:29:43;99799.22;;;27.93
13497;BMP180;6820;49.374;8.452;2023-07-31T19:33:45;99818.38;;;27.89
13497;BMP180;6820;49.374;8.452;2023-07-31T19:37:47;99814.09;;;27.87
13497;BMP180;6820;49.374;8.452;2023-07-31T19:41:48;99796.00;;;27.78
13497;BMP180;6820;49.374;8.452;2023-07-31T19:45:50;99788.28;;;27.74
13497;BMP180;6820;49.374;8.452;2023-07-31T19:49:51;99799.59;;;27.71
13497;BMP180;6820;49.374;8.452;2023-07-31T19:53:53;99792.56;;;27.75
13497;BMP180;6820;49.374;8.452;2023-07-31T19:57:55;99782.16;;;27.75
13497;BMP180;6820;49.374;8.452;2023-07-31T20:01:57;99778.75;;;27.73
13497;BMP180;6820;49.374;8.452;2023-07-31T20:05:58;99777.00;;;27.72
13497;BMP180;6820;49.374;8.452;2023-07-31T20:10:00;99775.34;;;27.68
13497;BMP180;6820;49.374;8.452;2023-07-31T20:14:05;99770.16;;;27.68
13497;BMP180;6820;49.374;8.452;2023-07-31T20:18:07;99765.84;;;27.67
13497;BMP180;6820;49.374;8.452;2023-07-31T20:22:09;99770.22;;;27.65
13497;BMP180;6820;49.374;8.452;2023-07-31T20:26:10;99770.22;;;27.65
13497;BMP180;6820;49.374;8.452;2023-07-31T20:30:12;99768.47;;;27.64
13497;BMP180;6820;49.374;8.452;2023-07-31T20:34:14;99755.56;;;27.58
13497;BMP180;6820;49.374;8.452;2023-07-31T20:38:15;99744.41;;;27.52
13497;BMP180;6820;49.374;8.452;2023-07-31T20:42:17;99739.31;;;27.44
13497;BMP180;6820;49.374;8.452;2023-07-31T20:46:22;99722.94;;;27.38
13497;BMP180;6820;49.374;8.452;2023-07-31T20:50:23;99716.97;;;27.30
13497;BMP180;6820;49.374;8.452;2023-07-31T20:54:25;99701.53;;;27.18
13497;BMP180;6820;49.374;8.452;2023-07-31T20:58:26;99689.53;;;27.10
13497;BMP180;6820;49.374;8.452;2023-07-31T21:02:28;99686.09;;;27.08
13497;BMP180;6820;49.374;8.452;2023-07-31T21:06:30;99685.28;;;27.04
13497;BMP180;6820;49.374;8.452;2023-07-31T21:10:31;99673.97;;;27.08
13497;BMP180;6820;49.374;8.452;2023-07-31T21:14:41;99666.16;;;27.08
13497;BMP180;6820;49.374;8.452;2023-07-31T21:18:43;99650.63;;;27.02
13497;BMP180;6820;49.374;8.452;2023-07-31T21:22:45;99637.63;;;27.02
13497;BMP180;6820;49.374;8.452;2023-07-31T21:26:47;99622.06;;;27.01
13497;BMP180;6820;49.374;8.452;2023-07-31T21:30:49;99632.47;;;27.01
13497;BMP180;6820;49.374;8.452;2023-07-31T21:34:50;99616.88;;;26.99
13497;BMP180;6820;49.374;8.452;2023-07-31T21:38:52;99610.84;;;26.97
13497;BMP180;6820;49.374;8.452;2023-07-31T21:42:54;99601.31;;;26.98
13497;BMP180;6820;49.374;8.452;2023-07-31T21:46:56;99566.63;;;26.99
13497;BMP180;6820;49.374;8.452;2023-07-31T21:50:58;99558.97;;;26.90
13497;BMP180;6820;49.374;8.452;2023-07-31T21:55:00;99538.28;;;26.83
13497;BMP180;6820;49.374;8.452;2023-07-31T21:59:02;99522.00;;;26.72
13497;BMP180;6820;49.374;8.452;2023-07-31T22:03:03;99520.34;;;26.66
13497;BMP180;6820;49.374;8.452;2023-07-31T22:07:05;99522.09;;;26.66
13497;BMP180;6820;49.374;8.452;2023-07-31T22:11:07;99516.00;;;26.67
13497;BMP180;6820;49.374;8.452;2023-07-31T22:15:09;99515.91;;;26.73
13497;BMP180;6820;49.374;8.452;2023-07-31T22:19:10;99522.88;;;26.74
13497;BMP180;6820;49.374;8.452;2023-07-31T22:23:12;99513.25;;;26.77
13497;BMP180;6820;49.374;8.452;2023-07-31T22:27:16;99517.59;;;26.77
13497;BMP180;6820;49.374;8.452;2023-07-31T22:31:18;99521.91;;;26.78
13497;BMP180;6820;49.374;8.452;2023-07-31T22:35:20;99521.84;;;26.82
13497;BMP180;6820;49.374;8.452;2023-07-31T22:39:22;99513.13;;;26.85
13497;BMP180;6820;49.374;8.452;2023-07-31T22:43:23;99509.69;;;26.84
13497;BMP180;6820;49.374;8.452;2023-07-31T22:47:25;99502.00;;;26.77
13497;BMP180;6820;49.374;8.452;2023-07-31T22:51:26;99504.56;;;26.78
13497;BMP180;6820;49.374;8.452;2023-07-31T22:55:29;99497.53;;;26.83
13497;BMP180;6820;49.374;8.452;2023-07-31T22:59:31;99481.88;;;26.86
13497;BMP180;6820;49.374;8.452;2023-07-31T23:03:33;99477.59;;;26.85
13497;BMP180;6820;49.374;8.452;2023-07-31T23:07:35;99476.78;;;26.82
13497;BMP180;6820;49.374;8.452;2023-07-31T23:11:36;99468.09;;;26.81
13497;BMP180;6820;49.374;8.452;2023-07-31T23:15:38;99471.59;;;26.80
13497;BMP180;6820;49.374;8.452;2023-07-31T23:19:40;99466.41;;;26.80
13497;BMP180;6820;49.374;8.452;2023-07-31T23:23:41;99445.66;;;26.77
13497;BMP180;6820;49.374;8.452;2023-07-31T23:27:43;99441.41;;;26.72
13497;BMP180;6820;49.374;8.452;2023-07-31T23:31:45;99438.09;;;26.64
13497;BMP180;6820;49.374;8.452;2023-07-31T23:35:47;99426.13;;;26.54
13497;BMP180;6820;49.374;8.452;2023-07-31T23:39:49;99422.91;;;26.42
13497;BMP180;6820;49.374;8.452;2023-07-31T23:43:50;99413.53;;;26.31
13497;BMP180;6820;49.374;8.452;2023-07-31T23:47:52;99408.63;;;26.14